Weather at Hillel Yaffe

Public forecast

Using degrees Celsius for public forecast. Weather courtesy of forecast.io.

Closest aviation weather report (METAR) to Hillel Yaffe

Closest report is Haifa International Airport, 22.7 nm (42.0 km) NNE.

2024/05/30 12:50 (retrieved 1 hour ago)

LLHA 301250Z 31011KT 9999 FEW032 25/17 Q1013

Closest aviation forecast (TAF) to Hillel Yaffe

Closest forecast is Herzliya Airport, 16.6 nm (30.8 km) S.

2024/05/30 12:00 (retrieved 2 hours ago)

TAF LLHZ 301100Z 3012/3112 30010KT 9999 FEW030 BECMG 3015/3017 36005KT FEW020 BECMG 3019/3021 VRB03KT PROB30 3023/3105 BKN015 BECMG 3107/3109 28010KT CAVOK TX25/3012Z TN18/3103Z